Time;durP1;ratioP1;P1;durP2;ratioP2;P2;SDS_P1;SDS_P2;PMS_P1;PMS_P2;Temp;Humidity;BMP_temperature;BMP_pressure;BME280_temperature;BME280_humidity;BME280_pressure;Samples;Min_cycle;Max_cycle;Signal;HPM_P1;HPM_P2
2022/02/02 00:01:58;;;;;;;0.60;0.50;;;;;;;;;;5057547;28;20465;-75
2022/02/02 00:04:29;;;;;;;0.60;0.60;;;;;;;;;;5066682;28;20784;-74
2022/02/02 00:09:56;;;;;;;1.53;1.43;;;;;;;;;;5054536;28;20749;-75
2022/02/02 00:12:46;;;;;;;0.60;0.60;;;;;;;;;;5036788;28;20454;-75
2022/02/02 00:20:42;;;;;;;0.70;0.70;;;;;;;;;;5074181;28;20408;-74
2022/02/02 00:23:16;;;;;;;0.60;0.50;;;;;;;;;;5058424;28;20469;-74
2022/02/02 00:25:52;;;;;;;0.60;0.50;;;;;;;;;;5053674;28;20418;-75
2022/02/02 00:28:24;;;;;;;0.60;0.50;;;;;;;;;;5052687;28;20459;-75
2022/02/02 00:30:51;;;;;;;0.60;0.57;;;;;;;;;;5053525;28;20465;-74
2022/02/02 00:33:28;;;;;;;0.60;0.50;;;;;;;;;;5062641;28;20496;-75
2022/02/02 00:36:03;;;;;;;0.60;0.50;;;;;;;;;;5054259;28;20417;-76
2022/02/02 00:38:30;;;;;;;0.60;0.50;;;;;;;;;;5053894;28;20448;-76
2022/02/02 00:40:58;;;;;;;0.60;0.50;;;;;;;;;;5053676;28;20814;-75
2022/02/02 00:43:26;;;;;;;0.60;0.60;;;;;;;;;;5053788;28;20453;-75
2022/02/02 00:46:13;;;;;;;0.60;0.50;;;;;;;;;;5062646;28;20492;-76
2022/02/02 00:48:40;;;;;;;0.60;0.50;;;;;;;;;;5073741;28;20440;-74
2022/02/02 00:51:07;;;;;;;0.60;0.50;;;;;;;;;;5058528;28;20450;-75
2022/02/02 00:53:34;;;;;;;0.60;0.50;;;;;;;;;;5054090;28;20842;-74
2022/02/02 00:56:02;;;;;;;0.60;0.50;;;;;;;;;;5053533;28;20428;-75
2022/02/02 00:58:29;;;;;;;0.60;0.50;;;;;;;;;;5052544;28;20436;-74
2022/02/02 01:00:56;;;;;;;0.60;0.50;;;;;;;;;;5053928;28;20789;-75
2022/02/02 01:03:22;;;;;;;0.60;0.50;;;;;;;;;;5066142;28;20451;-75
2022/02/02 01:05:49;;;;;;;0.60;0.50;;;;;;;;;;5064609;28;20451;-75
2022/02/02 01:10:55;;;;;;;0.60;0.50;;;;;;;;;;5052041;28;20444;-75
2022/02/02 01:18:32;;;;;;;0.60;0.50;;;;;;;;;;5073334;28;20510;-76
2022/02/02 01:21:05;;;;;;;0.60;0.50;;;;;;;;;;5073767;28;20421;-76
2022/02/02 01:29:12;;;;;;;0.60;0.60;;;;;;;;;;5059871;28;20811;-75
2022/02/02 01:31:40;;;;;;;0.60;0.57;;;;;;;;;;5052511;28;20443;-74
2022/02/02 01:34:07;;;;;;;0.60;0.60;;;;;;;;;;5073213;28;20430;-75
2022/02/02 01:36:38;;;;;;;0.60;0.50;;;;;;;;;;5072153;28;20439;-74
2022/02/02 01:39:10;;;;;;;0.60;0.50;;;;;;;;;;5054307;28;20436;-75
2022/02/02 01:41:44;;;;;;;0.60;0.50;;;;;;;;;;5058847;28;20941;-75
2022/02/02 01:44:36;;;;;;;0.60;0.50;;;;;;;;;;5055843;28;20490;-75
2022/02/02 01:47:08;;;;;;;0.60;0.50;;;;;;;;;;5087700;28;20466;-74
2022/02/02 01:53:03;;;;;;;0.60;0.50;;;;;;;;;;5064349;28;21118;-75
2022/02/02 01:55:31;;;;;;;0.60;0.50;;;;;;;;;;5056595;28;20426;-75
2022/02/02 01:58:12;;;;;;;0.60;0.60;;;;;;;;;;5042430;28;20825;-75
2022/02/02 02:00:44;;;;;;;1.27;1.17;;;;;;;;;;5062300;28;20794;-76
2022/02/02 02:03:16;;;;;;;0.60;0.53;;;;;;;;;;5066508;28;20454;-74
2022/02/02 02:05:47;;;;;;;0.60;0.50;;;;;;;;;;5076831;28;20407;-75
2022/02/02 02:08:17;;;;;;;0.60;0.60;;;;;;;;;;5075362;28;21011;-74
2022/02/02 02:10:45;;;;;;;0.60;0.60;;;;;;;;;;5092578;28;20409;-75
2022/02/02 02:13:23;;;;;;;0.60;0.60;;;;;;;;;;5075250;28;20449;-75
2022/02/02 02:15:59;;;;;;;0.60;0.60;;;;;;;;;;5075807;28;20933;-75
2022/02/02 02:18:30;;;;;;;0.60;0.50;;;;;;;;;;5073692;28;20426;-76
2022/02/02 02:21:03;;;;;;;0.60;0.57;;;;;;;;;;5058194;28;20465;-75
2022/02/02 02:23:34;;;;;;;0.60;0.60;;;;;;;;;;5075638;28;20911;-75
2022/02/02 02:26:20;;;;;;;0.60;0.60;;;;;;;;;;5078548;28;20496;-75
2022/02/02 02:37:38;;;;;;;0.60;0.50;;;;;;;;;;5064241;28;20463;-75
2022/02/02 02:56:54;;;;;;;0.60;0.50;;;;;;;;;;5056705;28;20819;-74
2022/02/02 02:59:34;;;;;;;0.60;0.50;;;;;;;;;;5054241;28;20450;-74
2022/02/02 03:30:02;;;;;;;0.60;0.50;;;;;;;;;;5075885;28;20455;-75
2022/02/02 03:49:41;;;;;;;0.60;0.50;;;;;;;;;;5055878;28;20451;-76
2022/02/02 03:54:46;;;;;;;0.60;0.60;;;;;;;;;;5055526;28;20447;-75
2022/02/02 04:07:54;;;;;;;0.60;0.60;;;;;;;;;;5073554;28;20513;-75
2022/02/02 04:10:21;;;;;;;0.90;0.87;;;;;;;;;;5063036;28;20471;-75
2022/02/02 04:12:55;;;;;;;0.60;0.60;;;;;;;;;;5053758;28;20488;-75
2022/02/02 04:37:35;;;;;;;0.60;0.60;;;;;;;;;;5053700;28;20464;-75
2022/02/02 04:59:14;;;;;;;;;;;;;;;;;;;;;
2022/02/02 05:04:49;;;;;;;0.60;0.50;;;;;;;;;;5070780;28;20443;-74
2022/02/02 05:20:39;;;;;;;0.60;0.50;;;;;;;;;;5057594;28;20513;-74
2022/02/02 05:50:11;;;;;;;0.70;0.60;;;;;;;;;;5065635;28;21010;-74
2022/02/02 05:52:38;;;;;;;0.60;0.50;;;;;;;;;;5053322;28;20451;-75
2022/02/02 05:55:07;;;;;;;0.60;0.50;;;;;;;;;;5055696;28;20523;-75
2022/02/02 05:57:37;;;;;;;0.60;0.50;;;;;;;;;;5052817;28;20780;-75
2022/02/02 06:00:05;;;;;;;0.60;0.50;;;;;;;;;;5053347;28;20454;-74
2022/02/02 06:02:32;;;;;;;0.60;0.50;;;;;;;;;;5058342;28;20780;-74
2022/02/02 06:05:04;;;;;;;0.60;0.50;;;;;;;;;;5072383;28;20494;-74
2022/02/02 06:07:32;;;;;;;0.60;0.50;;;;;;;;;;5073799;28;20553;-75
2022/02/02 06:10:00;;;;;;;0.60;0.50;;;;;;;;;;5063671;28;20541;-74
2022/02/02 06:12:30;;;;;;;0.60;0.60;;;;;;;;;;5055615;28;20468;-75
2022/02/02 06:14:58;;;;;;;0.60;0.60;;;;;;;;;;5053544;28;21000;-75
2022/02/02 06:17:26;;;;;;;0.60;0.50;;;;;;;;;;5052900;28;20434;-75
2022/02/02 06:19:54;;;;;;;0.73;0.73;;;;;;;;;;5060485;28;20532;-74
2022/02/02 06:22:21;;;;;;;0.93;0.93;;;;;;;;;;5072135;28;20474;-75
2022/02/02 06:24:49;;;;;;;0.60;0.50;;;;;;;;;;5073653;28;20412;-74
2022/02/02 06:27:19;;;;;;;0.60;0.50;;;;;;;;;;5073946;28;20418;-75
2022/02/02 06:29:51;;;;;;;0.60;0.60;;;;;;;;;;5069552;28;20466;-74
2022/02/02 06:32:19;;;;;;;0.60;0.60;;;;;;;;;;5059474;28;20449;-75
2022/02/02 06:34:52;;;;;;;0.60;0.50;;;;;;;;;;5076713;28;20707;-75
2022/02/02 06:37:19;;;;;;;0.60;0.60;;;;;;;;;;5075833;28;21041;-75
2022/02/02 06:39:50;;;;;;;0.60;0.50;;;;;;;;;;5055816;28;20509;-74
2022/02/02 06:42:17;;;;;;;0.60;0.60;;;;;;;;;;5076795;28;20461;-74
2022/02/02 06:44:45;;;;;;;0.60;0.60;;;;;;;;;;5075903;28;20920;-74
2022/02/02 06:47:13;;;;;;;0.60;0.60;;;;;;;;;;5076190;28;20457;-74
2022/02/02 06:49:44;;;;;;;0.70;0.60;;;;;;;;;;5071941;28;20478;-75
2022/02/02 06:52:22;;;;;;;0.60;0.60;;;;;;;;;;5055964;28;20486;-74
2022/02/02 06:54:57;;;;;;;0.60;0.50;;;;;;;;;;5054888;28;20502;-75
2022/02/02 06:57:35;;;;;;;0.60;0.60;;;;;;;;;;5057173;28;20815;-73
2022/02/02 07:00:29;;;;;;;0.70;0.60;;;;;;;;;;5055892;28;20444;-75
2022/02/02 07:03:12;;;;;;;0.60;0.50;;;;;;;;;;5065122;28;20438;-74
2022/02/02 07:06:02;;;;;;;0.60;0.50;;;;;;;;;;5076586;28;20750;-74
2022/02/02 07:16:26;;;;;;;;;;;;;;;;;;;;;
2022/02/02 07:29:42;;;;;;;0.60;0.50;;;;;;;;;;5055133;28;20466;-75
2022/02/02 07:35:08;;;;;;;0.70;0.70;;;;;;;;;;5074541;28;20521;-75
2022/02/02 07:37:41;;;;;;;0.60;0.50;;;;;;;;;;5063687;28;20531;-74
2022/02/02 07:40:10;;;;;;;0.60;0.50;;;;;;;;;;5065776;28;20992;-74
2022/02/02 07:42:40;;;;;;;0.60;0.50;;;;;;;;;;5076324;28;20412;-75
2022/02/02 07:45:10;;;;;;;0.60;0.50;;;;;;;;;;5090612;28;20917;-74
2022/02/02 07:47:38;;;;;;;0.60;0.50;;;;;;;;;;5090832;28;20885;-74
2022/02/02 07:50:09;;;;;;;0.60;0.50;;;;;;;;;;5082302;28;20477;-74
2022/02/02 07:52:37;;;;;;;0.60;0.50;;;;;;;;;;5064340;28;20497;-73
2022/02/02 07:55:05;;;;;;;0.60;0.50;;;;;;;;;;5053066;28;20794;-74
2022/02/02 07:57:33;;;;;;;0.60;0.53;;;;;;;;;;5054987;28;20955;-75
2022/02/02 08:00:05;;;;;;;0.60;0.50;;;;;;;;;;5054636;28;20494;-74
2022/02/02 08:05:14;;;;;;;0.60;0.50;;;;;;;;;;5077825;28;20429;-74
2022/02/02 08:07:47;;;;;;;0.60;0.50;;;;;;;;;;5073547;28;20470;-74
2022/02/02 08:10:19;;;;;;;0.60;0.50;;;;;;;;;;5076059;28;20477;-75
2022/02/02 08:12:54;;;;;;;0.60;0.50;;;;;;;;;;5079457;28;20880;-75
2022/02/02 08:15:23;;;;;;;0.60;0.50;;;;;;;;;;5068773;28;20417;-74
2022/02/02 08:17:51;;;;;;;0.60;0.53;;;;;;;;;;5065693;28;20433;-74
2022/02/02 08:20:20;;;;;;;0.60;0.60;;;;;;;;;;5054321;28;20441;-75
2022/02/02 08:22:47;;;;;;;0.60;0.60;;;;;;;;;;5061289;28;20485;-75
2022/02/02 08:25:39;;;;;;;0.60;0.60;;;;;;;;;;5069029;28;20500;-75
2022/02/02 08:28:04;;;;;;;0.60;0.60;;;;;;;;;;5073369;28;20435;-75
2022/02/02 08:30:32;;;;;;;0.60;0.60;;;;;;;;;;5072986;28;20453;-75
2022/02/02 08:33:08;;;;;;;0.60;0.50;;;;;;;;;;5073452;28;20427;-74
2022/02/02 08:35:42;;;;;;;0.60;0.50;;;;;;;;;;5073738;28;20777;-74
2022/02/02 08:38:16;;;;;;;0.60;0.50;;;;;;;;;;5069036;28;20559;-74
2022/02/02 08:40:55;;;;;;;0.60;0.50;;;;;;;;;;5053954;28;20502;-76
2022/02/02 08:45:50;;;;;;;0.60;0.50;;;;;;;;;;5067141;28;20512;-74
2022/02/02 08:48:24;;;;;;;0.60;0.57;;;;;;;;;;5065516;28;20911;-75
2022/02/02 08:51:04;;;;;;;0.60;0.60;;;;;;;;;;5064637;28;20423;-73
2022/02/02 08:53:47;;;;;;;1.00;0.90;;;;;;;;;;5073739;28;20428;-74
2022/02/02 08:59:18;;;;;;;0.60;0.60;;;;;;;;;;5061919;28;20845;-75
2022/02/02 09:01:46;;;;;;;0.60;0.60;;;;;;;;;;5054981;28;20807;-75
2022/02/02 09:07:00;;;;;;;0.60;0.50;;;;;;;;;;5054621;28;20562;-74
2022/02/02 09:31:30;;;;;;;0.60;0.60;;;;;;;;;;5067208;28;20436;-74
2022/02/02 09:36:30;;;;;;;0.70;0.70;;;;;;;;;;5053712;28;20471;-75
2022/02/02 09:39:00;;;;;;;0.70;0.70;;;;;;;;;;5053916;28;20458;-75
2022/02/02 09:41:37;;;;;;;0.60;0.60;;;;;;;;;;5075476;28;20416;-74
2022/02/02 09:44:06;;;;;;;0.70;0.60;;;;;;;;;;5071198;28;20424;-74
2022/02/02 09:49:25;;;;;;;0.70;0.60;;;;;;;;;;5054752;28;21166;-74
2022/02/02 09:51:59;;;;;;;0.70;0.70;;;;;;;;;;5052913;28;20443;-74
2022/02/02 10:15:58;;;;;;;0.80;0.80;;;;;;;;;;5076681;28;20806;-73
2022/02/02 10:18:29;;;;;;;0.70;0.60;;;;;;;;;;5076990;28;20427;-73
2022/02/02 10:20:56;;;;;;;0.70;0.63;;;;;;;;;;5060395;28;20922;-74
2022/02/02 10:23:24;;;;;;;0.70;0.63;;;;;;;;;;5055081;28;20993;-75
2022/02/02 10:25:57;;;;;;;0.70;0.70;;;;;;;;;;5068370;28;20504;-75
2022/02/02 10:28:29;;;;;;;0.70;0.60;;;;;;;;;;5075951;28;20441;-73
2022/02/02 10:31:00;;;;;;;0.67;0.60;;;;;;;;;;5060101;28;20471;-73
2022/02/02 10:33:29;;;;;;;0.70;0.70;;;;;;;;;;5067745;28;20442;-73
2022/02/02 10:35:59;;;;;;;0.70;0.60;;;;;;;;;;5058417;28;20533;-75
2022/02/02 10:38:32;;;;;;;0.70;0.70;;;;;;;;;;5069581;28;20490;-74
2022/02/02 10:43:45;;;;;;;0.67;0.60;;;;;;;;;;5054397;28;20528;-72
2022/02/02 10:46:16;;;;;;;0.70;0.60;;;;;;;;;;5054565;28;20590;-74
2022/02/02 10:48:58;;;;;;;0.60;0.60;;;;;;;;;;5055621;28;20485;-72
2022/02/02 10:51:49;;;;;;;0.70;0.60;;;;;;;;;;5075240;28;20472;-73
2022/02/02 10:59:28;;;;;;;0.70;0.60;;;;;;;;;;5073661;28;20418;-73
2022/02/02 11:07:10;;;;;;;0.70;0.60;;;;;;;;;;5056713;28;20972;-73
2022/02/02 11:09:38;;;;;;;0.70;0.60;;;;;;;;;;5073728;28;20471;-73
2022/02/02 11:12:07;;;;;;;0.70;0.60;;;;;;;;;;5075590;28;20423;-72
2022/02/02 11:14:42;;;;;;;0.80;0.80;;;;;;;;;;5074469;28;20410;-73
2022/02/02 11:17:13;;;;;;;0.90;0.90;;;;;;;;;;5079904;28;20422;-73
2022/02/02 11:19:44;;;;;;;0.70;0.60;;;;;;;;;;5075328;28;20456;-74
2022/02/02 11:22:30;;;;;;;0.70;0.60;;;;;;;;;;5091091;28;20449;-73
2022/02/02 11:24:59;;;;;;;0.70;0.60;;;;;;;;;;5074791;28;20762;-72
2022/02/02 11:27:35;;;;;;;0.70;0.60;;;;;;;;;;5066362;28;20439;-72
2022/02/02 11:30:03;;;;;;;0.70;0.70;;;;;;;;;;5055049;28;20454;-73
2022/02/02 11:32:42;;;;;;;0.70;0.70;;;;;;;;;;5042467;28;20468;-73
2022/02/02 11:35:26;;;;;;;0.70;0.60;;;;;;;;;;5074261;28;20782;-72
2022/02/02 11:38:22;;;;;;;0.70;0.70;;;;;;;;;;5067268;28;20877;-72
2022/02/02 11:44:05;;;;;;;0.70;0.70;;;;;;;;;;5055940;28;20449;-74
2022/02/02 11:46:44;;;;;;;0.70;0.67;;;;;;;;;;5055075;28;20406;-73
2022/02/02 11:49:17;;;;;;;0.70;0.70;;;;;;;;;;5055250;28;20489;-72
2022/02/02 11:51:44;;;;;;;0.70;0.70;;;;;;;;;;5054800;28;20847;-73
2022/02/02 11:54:11;;;;;;;0.70;0.60;;;;;;;;;;5053686;28;20452;-73
2022/02/02 11:57:04;;;;;;;0.70;0.70;;;;;;;;;;5054567;28;20435;-73
2022/02/02 12:00:00;;;;;;;0.70;0.60;;;;;;;;;;5044326;28;20538;-74
2022/02/02 12:02:42;;;;;;;0.70;0.60;;;;;;;;;;5058976;28;20477;-73
2022/02/02 12:10:40;;;;;;;0.70;0.60;;;;;;;;;;5060794;28;21004;-74
2022/02/02 12:57:44;;;;;;;0.70;0.70;;;;;;;;;;5074393;28;20414;-73
2022/02/02 13:00:14;;;;;;;0.70;0.60;;;;;;;;;;5065410;28;20446;-73
2022/02/02 13:02:42;;;;;;;0.70;0.70;;;;;;;;;;5065705;28;20450;-73
2022/02/02 13:05:10;;;;;;;0.70;0.63;;;;;;;;;;5073526;28;20438;-74
2022/02/02 13:07:40;;;;;;;0.70;0.70;;;;;;;;;;5060569;28;20461;-74
2022/02/02 13:10:12;;;;;;;0.70;0.70;;;;;;;;;;5075937;28;21084;-74
2022/02/02 13:12:53;;;;;;;0.70;0.60;;;;;;;;;;5052357;28;20435;-74
2022/02/02 13:20:35;;;;;;;1.10;1.00;;;;;;;;;;5062943;28;20454;-75
2022/02/02 13:23:13;;;;;;;0.70;0.60;;;;;;;;;;5064651;28;20489;-74
2022/02/02 13:25:43;;;;;;;0.70;0.67;;;;;;;;;;5055993;28;20415;-74
2022/02/02 13:28:11;;;;;;;0.70;0.70;;;;;;;;;;5057846;28;20434;-75
2022/02/02 13:30:44;;;;;;;0.70;0.70;;;;;;;;;;5059503;28;20473;-74
2022/02/02 13:33:20;;;;;;;0.80;0.80;;;;;;;;;;5065847;28;20443;-74
2022/02/02 13:36:14;;;;;;;0.70;0.70;;;;;;;;;;5072871;28;20429;-73
2022/02/02 13:39:14;;;;;;;0.77;0.73;;;;;;;;;;5075585;28;20511;-74
2022/02/02 13:45:05;;;;;;;0.70;0.63;;;;;;;;;;5077120;28;20537;-74
2022/02/02 13:48:27;;;;;;;;;;;;;;;;;;;;;
2022/02/02 13:53:55;;;;;;;;;;;;;;;;;;;;;
2022/02/02 14:04:16;;;;;;;0.70;0.60;;;;;;;;;;5074115;28;20969;-76
2022/02/02 14:31:23;;;;;;;0.70;0.60;;;;;;;;;;5062726;28;20471;-74
2022/02/02 14:33:55;;;;;;;0.70;0.60;;;;;;;;;;5072969;28;20433;-74
2022/02/02 14:36:27;;;;;;;0.70;0.70;;;;;;;;;;5076594;28;20493;-74
2022/02/02 14:39:11;;;;;;;0.70;0.60;;;;;;;;;;5062460;28;20449;-74
2022/02/02 14:41:46;;;;;;;0.70;0.60;;;;;;;;;;5057324;28;20441;-74
2022/02/02 14:44:22;;;;;;;0.70;0.70;;;;;;;;;;5075227;28;20501;-74
2022/02/02 14:47:20;;;;;;;0.80;0.70;;;;;;;;;;5074984;28;20445;-73
2022/02/02 14:52:31;;;;;;;;;;;;;;;;;;;;;
2022/02/02 14:55:12;;;;;;;0.70;0.70;;;;;;;;;;5056167;28;20435;-73
2022/02/02 15:06:42;;;;;;;0.70;0.70;;;;;;;;;;5076442;28;20810;-73
2022/02/02 15:27:40;;;;;;;0.70;0.70;;;;;;;;;;5055633;28;20420;-75
2022/02/02 15:30:22;;;;;;;0.70;0.70;;;;;;;;;;5072715;28;20412;-74
2022/02/02 15:32:50;;;;;;;0.70;0.60;;;;;;;;;;5074347;28;20459;-73
2022/02/02 15:35:18;;;;;;;0.70;0.60;;;;;;;;;;5075487;28;20435;-76
2022/02/02 15:38:04;;;;;;;0.70;0.60;;;;;;;;;;5074312;28;20469;-74
2022/02/02 15:40:36;;;;;;;0.70;0.60;;;;;;;;;;5070244;28;20485;-74
2022/02/02 15:59:12;;;;;;;0.70;0.60;;;;;;;;;;5055313;28;20414;-74
2022/02/02 16:04:33;;;;;;;0.70;0.60;;;;;;;;;;5053721;28;20538;-74
2022/02/02 16:07:04;;;;;;;0.70;0.60;;;;;;;;;;5054380;28;20573;-74
2022/02/02 16:09:51;;;;;;;0.70;0.60;;;;;;;;;;5054401;28;20516;-73
2022/02/02 16:14:58;;;;;;;0.60;0.53;;;;;;;;;;5054260;28;20432;-74
2022/02/02 16:36:36;;;;;;;0.67;0.60;;;;;;;;;;5073781;28;20475;-72
2022/02/02 16:39:21;;;;;;;0.70;0.60;;;;;;;;;;5089315;28;20450;-72
2022/02/02 16:44:34;;;;;;;0.67;0.60;;;;;;;;;;5071771;28;20447;-74
2022/02/02 16:47:00;;;;;;;0.70;0.60;;;;;;;;;;5072280;28;20443;-73
2022/02/02 16:49:29;;;;;;;0.70;0.60;;;;;;;;;;5055777;28;20447;-73
2022/02/02 16:51:56;;;;;;;0.70;0.60;;;;;;;;;;5072269;28;20490;-72
2022/02/02 16:54:28;;;;;;;0.70;0.60;;;;;;;;;;5072936;28;20411;-75
2022/02/02 16:57:07;;;;;;;0.70;0.60;;;;;;;;;;5071860;28;20434;-76
2022/02/02 17:30:08;;;;;;;0.70;0.70;;;;;;;;;;5053232;28;20436;-73
2022/02/02 17:38:27;;;;;;;0.60;0.60;;;;;;;;;;5071844;28;20478;-74
2022/02/02 17:43:36;;;;;;;0.60;0.60;;;;;;;;;;5071564;28;20466;-74
2022/02/02 18:01:01;;;;;;;0.60;0.60;;;;;;;;;;5051991;28;20197;-74
2022/02/02 18:21:20;;;;;;;0.60;0.60;;;;;;;;;;5053146;28;20503;-75
2022/02/02 18:36:52;;;;;;;0.60;0.50;;;;;;;;;;5070800;28;20451;-74
2022/02/02 18:50:05;;;;;;;0.60;0.50;;;;;;;;;;5055232;28;20504;-74
2022/02/02 19:52:18;;;;;;;0.60;0.50;;;;;;;;;;5066703;28;20465;-73
2022/02/02 20:07:52;;;;;;;0.60;0.50;;;;;;;;;;5068032;28;20469;-75
2022/02/02 20:12:50;;;;;;;0.60;0.50;;;;;;;;;;5069229;28;20973;-74
2022/02/02 20:15:17;;;;;;;0.60;0.60;;;;;;;;;;5071604;28;20423;-75
2022/02/02 20:17:49;;;;;;;0.60;0.60;;;;;;;;;;5074691;28;20825;-75
2022/02/02 20:20:19;;;;;;;0.60;0.50;;;;;;;;;;5073305;28;20433;-75
2022/02/02 20:22:47;;;;;;;0.70;0.70;;;;;;;;;;5069627;28;20556;-75
2022/02/02 20:25:15;;;;;;;0.60;0.50;;;;;;;;;;5053665;28;20466;-75
2022/02/02 20:27:51;;;;;;;0.60;0.50;;;;;;;;;;5072660;28;20555;-75
2022/02/02 20:30:18;;;;;;;0.60;0.50;;;;;;;;;;5073984;28;20505;-73
2022/02/02 20:32:45;;;;;;;0.60;0.60;;;;;;;;;;5074249;28;20455;-75
2022/02/02 20:35:13;;;;;;;0.60;0.50;;;;;;;;;;5072503;28;20433;-75
2022/02/02 20:37:40;;;;;;;0.60;0.60;;;;;;;;;;5066060;28;20465;-75
2022/02/02 20:40:08;;;;;;;0.60;0.60;;;;;;;;;;5056445;28;20433;-74
2022/02/02 21:14:40;;;;;;;0.60;0.60;;;;;;;;;;5076099;28;20494;-74
2022/02/02 21:17:33;;;;;;;0.60;0.60;;;;;;;;;;5076027;28;20811;-74
2022/02/02 21:20:08;;;;;;;0.60;0.60;;;;;;;;;;5074273;28;20465;-74
2022/02/02 21:22:47;;;;;;;0.60;0.60;;;;;;;;;;5064900;28;20551;-75
2022/02/02 21:28:02;;;;;;;0.60;0.50;;;;;;;;;;5080721;28;20444;-75
2022/02/02 21:30:30;;;;;;;0.60;0.53;;;;;;;;;;5063785;28;20518;-74
2022/02/02 21:32:59;;;;;;;0.60;0.60;;;;;;;;;;5057808;28;20466;-75
2022/02/02 21:35:27;;;;;;;0.60;0.60;;;;;;;;;;5078558;28;20466;-76
2022/02/02 21:38:03;;;;;;;0.60;0.60;;;;;;;;;;5075768;28;20467;-74
2022/02/02 21:40:31;;;;;;;0.60;0.60;;;;;;;;;;5074261;28;20459;-75
2022/02/02 21:42:58;;;;;;;0.60;0.50;;;;;;;;;;5091928;28;20444;-75
2022/02/02 21:45:28;;;;;;;0.60;0.50;;;;;;;;;;5091298;28;20464;-75
2022/02/02 21:47:57;;;;;;;0.90;0.70;;;;;;;;;;5057290;28;20434;-75
2022/02/02 21:50:25;;;;;;;0.60;0.60;;;;;;;;;;5037966;28;20433;-75
2022/02/02 21:52:52;;;;;;;1.07;0.97;;;;;;;;;;5056186;28;20470;-76
2022/02/02 21:55:21;;;;;;;0.60;0.60;;;;;;;;;;5074920;28;20532;-75
2022/02/02 21:57:50;;;;;;;0.67;0.60;;;;;;;;;;5077485;28;20441;-75
2022/02/02 22:00:17;;;;;;;0.60;0.50;;;;;;;;;;5080500;28;20433;-75
2022/02/02 22:02:46;;;;;;;0.60;0.50;;;;;;;;;;5078496;28;20473;-75
2022/02/02 22:05:13;;;;;;;0.60;0.50;;;;;;;;;;5066872;28;20446;-75
2022/02/02 22:07:40;;;;;;;0.60;0.60;;;;;;;;;;5059419;28;20510;-75
2022/02/02 22:10:08;;;;;;;0.60;0.50;;;;;;;;;;5070014;28;20453;-76
2022/02/02 22:12:39;;;;;;;0.70;0.70;;;;;;;;;;5081010;28;20463;-75
2022/02/02 22:15:11;;;;;;;0.60;0.50;;;;;;;;;;5078319;28;20469;-75
2022/02/02 22:17:43;;;;;;;0.60;0.60;;;;;;;;;;5055691;28;20543;-76
2022/02/02 22:20:14;;;;;;;0.60;0.60;;;;;;;;;;5057754;28;20473;-75
2022/02/02 22:22:42;;;;;;;0.60;0.50;;;;;;;;;;5058306;28;20491;-75
2022/02/02 22:25:10;;;;;;;0.60;0.60;;;;;;;;;;5056794;28;20422;-76
2022/02/02 22:27:39;;;;;;;0.60;0.60;;;;;;;;;;5071676;28;20492;-76
2022/02/02 22:30:06;;;;;;;0.60;0.50;;;;;;;;;;5076176;28;20468;-75
2022/02/02 22:32:34;;;;;;;0.60;0.60;;;;;;;;;;5076166;28;20470;-75
2022/02/02 22:35:01;;;;;;;0.60;0.50;;;;;;;;;;5075953;28;20449;-76
2022/02/02 22:37:29;;;;;;;0.60;0.60;;;;;;;;;;5077480;28;20449;-75
2022/02/02 22:39:56;;;;;;;0.60;0.50;;;;;;;;;;5074173;28;20437;-75
2022/02/02 22:42:25;;;;;;;0.60;0.50;;;;;;;;;;5075004;28;20536;-76
2022/02/02 22:44:59;;;;;;;0.60;0.50;;;;;;;;;;5092021;28;20441;-75
2022/02/02 22:47:28;;;;;;;0.60;0.60;;;;;;;;;;5058442;28;20443;-76
2022/02/02 22:49:56;;;;;;;0.60;0.60;;;;;;;;;;5076595;28;20435;-76
2022/02/02 22:52:23;;;;;;;0.60;0.50;;;;;;;;;;5076390;28;20591;-77
2022/02/02 22:54:50;;;;;;;0.60;0.60;;;;;;;;;;5074298;28;20438;-76
2022/02/02 22:57:16;;;;;;;0.80;0.80;;;;;;;;;;5070691;28;20873;-76
2022/02/02 22:59:47;;;;;;;0.60;0.50;;;;;;;;;;5070394;28;20446;-76
2022/02/02 23:03:00;;;;;;;0.60;0.50;;;;;;;;;;5091590;28;20414;-77
2022/02/02 23:05:06;;;;;;;0.60;0.60;;;;;;;;;;5061728;28;20538;-76
2022/02/02 23:07:34;;;;;;;0.60;0.60;;;;;;;;;;5054702;28;20573;-77
2022/02/02 23:10:01;;;;;;;0.60;0.60;;;;;;;;;;5054861;28;20448;-76
2022/02/02 23:12:28;;;;;;;0.60;0.50;;;;;;;;;;5054456;28;20438;-76
2022/02/02 23:15:02;;;;;;;0.60;0.60;;;;;;;;;;5054541;28;20508;-76
2022/02/02 23:17:32;;;;;;;0.60;0.50;;;;;;;;;;5059051;28;20499;-75
2022/02/02 23:20:03;;;;;;;0.60;0.50;;;;;;;;;;5090616;28;20412;-75
2022/02/02 23:22:32;;;;;;;0.67;0.67;;;;;;;;;;5075566;28;20803;-76
2022/02/02 23:25:04;;;;;;;1.37;1.03;;;;;;;;;;5072199;28;20522;-78
2022/02/02 23:27:32;;;;;;;0.60;0.50;;;;;;;;;;5075660;28;20403;-75
2022/02/02 23:30:00;;;;;;;0.60;0.50;;;;;;;;;;5056753;28;20432;-76
2022/02/02 23:32:28;;;;;;;0.60;0.50;;;;;;;;;;5059587;28;20476;-78
2022/02/02 23:34:57;;;;;;;0.60;0.50;;;;;;;;;;5072326;28;20559;-76
2022/02/02 23:37:26;;;;;;;1.03;1.03;;;;;;;;;;5074531;28;20557;-77
2022/02/02 23:39:53;;;;;;;0.60;0.50;;;;;;;;;;5084348;28;20455;-77
2022/02/02 23:42:21;;;;;;;0.60;0.50;;;;;;;;;;5066748;28;20475;-79
2022/02/02 23:44:49;;;;;;;0.60;0.60;;;;;;;;;;5073819;28;20538;-77
2022/02/02 23:47:17;;;;;;;0.60;0.50;;;;;;;;;;5075080;28;20534;-77
2022/02/02 23:49:51;;;;;;;0.60;0.50;;;;;;;;;;5074707;28;20449;-77
2022/02/02 23:52:22;;;;;;;0.60;0.50;;;;;;;;;;5073047;28;20496;-77
2022/02/02 23:54:52;;;;;;;0.60;0.50;;;;;;;;;;5074287;28;20512;-77
2022/02/02 23:57:41;;;;;;;0.60;0.50;;;;;;;;;;5056030;28;21226;-77
